createdAt,value
2023-04-18T00:00:28.679Z,98603.00
2023-04-18T00:03:00.922Z,98609.00
2023-04-18T00:05:43.279Z,98615.00
2023-04-18T00:08:12.737Z,98618.00
2023-04-18T00:10:42.374Z,98623.00
2023-04-18T00:13:13.202Z,98630.00
2023-04-18T00:15:44.848Z,98637.00
2023-04-18T00:18:19.031Z,98639.00
2023-04-18T00:20:48.583Z,98643.00
2023-04-18T00:23:17.921Z,98642.00
2023-04-18T00:25:47.196Z,98644.00
2023-04-18T00:28:16.652Z,98649.00
2023-04-18T00:30:47.320Z,98654.00
2023-04-18T00:33:16.815Z,98659.00
2023-04-18T00:35:46.213Z,98662.00
2023-04-18T00:38:15.500Z,98671.00
2023-04-18T00:40:44.913Z,98675.00
2023-04-18T00:43:17.985Z,98671.00
2023-04-18T00:45:47.337Z,98678.00
2023-04-18T00:51:01.419Z,98686.00
2023-04-18T00:53:31.904Z,98687.00
2023-04-18T00:56:01.259Z,98683.00
2023-04-18T00:58:32.336Z,98695.00
2023-04-18T01:01:08.716Z,98689.00
2023-04-18T01:03:38.773Z,98690.00
2023-04-18T01:06:08.380Z,98699.00
2023-04-18T01:08:39.284Z,98701.00
2023-04-18T01:11:08.621Z,98706.00
2023-04-18T01:13:37.910Z,98712.00
2023-04-18T01:16:07.708Z,98714.00
2023-04-18T01:18:38.114Z,98711.00
2023-04-18T01:21:08.052Z,98723.00
2023-04-18T01:23:38.525Z,98726.00
2023-04-18T01:26:08.598Z,98729.00
2023-04-18T01:28:39.142Z,98727.00
2023-04-18T01:31:08.849Z,98738.00
2023-04-18T01:33:41.465Z,98737.00
2023-04-18T01:36:10.894Z,98742.00
2023-04-18T01:38:40.301Z,98751.00
2023-04-18T01:41:09.671Z,98754.00
2023-04-18T01:43:39.003Z,98747.00
2023-04-18T01:48:51.786Z,98751.00
2023-04-18T01:51:21.131Z,98756.00
2023-04-18T01:53:50.888Z,98755.00
2023-04-18T01:56:25.865Z,98756.00
2023-04-18T02:01:40.612Z,98750.00
2023-04-18T02:04:10.082Z,98754.00
2023-04-18T02:06:41.179Z,98753.00
2023-04-18T02:09:10.680Z,98761.00
2023-04-18T02:11:42.981Z,98758.00
2023-04-18T02:14:18.120Z,98758.00
2023-04-18T02:16:51.343Z,98763.00
2023-04-18T02:19:21.451Z,98759.00
2023-04-18T02:21:50.957Z,98751.00
2023-04-18T02:24:20.678Z,98754.00
2023-04-18T02:26:50.683Z,98753.00
2023-04-18T02:29:19.993Z,98759.00
2023-04-18T02:31:49.369Z,98748.00
2023-04-18T02:34:18.772Z,98757.00
2023-04-18T02:36:48.649Z,98756.00
2023-04-18T02:39:17.947Z,98752.00
2023-04-18T02:41:47.326Z,98758.00
2023-04-18T02:44:28.329Z,98761.00
2023-04-18T02:46:57.628Z,98763.00
2023-04-18T02:49:27.047Z,98762.00
2023-04-18T02:51:59.750Z,98764.00
2023-04-18T02:54:29.192Z,98762.00
2023-04-18T02:59:40.888Z,98760.00
2023-04-18T03:02:10.342Z,98760.00
2023-04-18T03:04:39.790Z,98752.00
2023-04-18T03:07:09.129Z,98749.00
2023-04-18T03:09:38.401Z,98749.00
2023-04-18T03:12:07.899Z,98747.00
2023-04-18T03:14:37.394Z,98746.00
2023-04-18T03:17:07.113Z,98749.00
2023-04-18T03:19:36.450Z,98743.00
2023-04-18T03:22:05.837Z,98742.00
2023-04-18T03:24:35.179Z,98739.00
2023-04-18T03:27:04.464Z,98736.00
2023-04-18T03:29:33.823Z,98732.00
2023-04-18T03:32:03.063Z,98735.00
2023-04-18T03:34:32.422Z,98737.00
2023-04-18T03:37:02.182Z,98725.00
2023-04-18T03:39:31.452Z,98724.00
2023-04-18T03:42:00.597Z,98717.00
2023-04-18T03:44:29.967Z,98714.00
2023-04-18T03:46:59.158Z,98717.00
2023-04-18T03:49:28.370Z,98711.00
2023-04-18T03:51:57.559Z,98707.00
2023-04-18T03:54:26.896Z,98705.00
2023-04-18T03:56:56.767Z,98706.00
2023-04-18T03:59:26.085Z,98700.00
2023-04-18T04:01:55.366Z,98698.00
2023-04-18T04:04:24.616Z,98694.00
2023-04-18T04:06:53.916Z,98689.00
2023-04-18T04:09:23.200Z,98690.00
2023-04-18T04:11:52.625Z,98672.00
2023-04-18T04:14:22.632Z,98668.00
2023-04-18T04:16:53.177Z,98673.00
2023-04-18T04:19:22.519Z,98668.00
2023-04-18T04:21:52.119Z,98664.00
2023-04-18T04:24:23.665Z,98661.00
2023-04-18T04:26:53.064Z,98663.00
2023-04-18T04:29:22.523Z,98668.00
2023-04-18T04:31:51.833Z,98660.00
2023-04-18T04:34:21.405Z,98656.00
2023-04-18T04:36:52.067Z,98644.00
2023-04-18T04:39:21.549Z,98647.00
2023-04-18T04:41:54.409Z,98652.00
2023-04-18T04:44:27.077Z,98649.00
2023-04-18T04:46:57.066Z,98642.00
2023-04-18T04:49:26.388Z,98644.00
2023-04-18T04:51:55.613Z,98630.00
2023-04-18T04:54:24.952Z,98628.00
2023-04-18T04:56:54.219Z,98616.00
2023-04-18T04:59:23.627Z,98618.00
2023-04-18T05:01:52.902Z,98614.00
2023-04-18T05:04:22.397Z,98608.00
2023-04-18T05:06:52.165Z,98610.00
2023-04-18T05:09:21.487Z,98598.00
2023-04-18T05:11:50.803Z,98591.00
2023-04-18T05:14:21.719Z,98583.00
2023-04-18T05:16:51.304Z,98576.00
2023-04-18T05:19:21.395Z,98569.00
2023-04-18T05:21:50.697Z,98564.00
2023-04-18T05:24:20.380Z,98559.00
2023-04-18T05:26:49.830Z,98556.00
2023-04-18T05:29:19.142Z,98546.00
2023-04-18T05:31:48.516Z,98545.00
2023-04-18T05:34:17.905Z,98539.00
2023-04-18T05:36:48.766Z,98527.00
2023-04-18T05:39:18.145Z,98525.00
2023-04-18T05:41:47.488Z,98519.00
2023-04-18T05:44:18.637Z,98509.00
2023-04-18T05:46:52.235Z,98500.00
2023-04-18T05:49:22.112Z,98514.00
2023-04-18T05:51:51.588Z,98503.00
2023-04-18T05:54:26.064Z,98491.00
2023-04-18T05:56:56.380Z,98488.00
2023-04-18T05:59:27.869Z,98488.00
2023-04-18T06:01:57.554Z,98487.00
2023-04-18T06:04:27.049Z,98478.00
2023-04-18T06:06:56.531Z,98477.00
2023-04-18T06:09:25.852Z,98472.00
2023-04-18T06:11:55.150Z,98471.00
2023-04-18T06:14:24.412Z,98458.00
2023-04-18T06:16:53.756Z,98451.00
2023-04-18T06:19:24.198Z,98444.00
2023-04-18T06:21:54.995Z,98441.00
2023-04-18T06:24:24.803Z,98430.00
2023-04-18T06:26:56.707Z,98415.00
2023-04-18T06:29:28.219Z,98420.00
2023-04-18T06:31:58.709Z,98412.00
2023-04-18T06:34:28.173Z,98413.00
2023-04-18T06:36:57.731Z,98408.00
2023-04-18T06:39:28.870Z,98414.00
2023-04-18T06:41:59.673Z,98405.00
2023-04-18T06:44:29.009Z,98406.00
2023-04-18T06:46:58.482Z,98405.00
2023-04-18T06:49:28.026Z,98399.00
2023-04-18T06:51:57.424Z,98392.00
2023-04-18T06:54:26.853Z,98387.00
2023-04-18T06:56:56.959Z,98382.00
2023-04-18T06:59:26.296Z,98380.00
2023-04-18T07:01:55.693Z,98373.00
2023-04-18T07:04:25.330Z,98374.00
2023-04-18T07:06:54.859Z,98356.00
2023-04-18T07:09:24.183Z,98354.00
2023-04-18T07:11:53.890Z,98338.00
2023-04-18T07:14:26.255Z,98351.00
2023-04-18T07:16:55.808Z,98341.00
2023-04-18T07:19:25.802Z,98344.00
2023-04-18T07:21:56.940Z,98342.00
2023-04-18T07:24:26.326Z,98336.00
2023-04-18T07:26:56.203Z,98329.00
2023-04-18T07:29:25.537Z,98324.00
2023-04-18T07:31:54.952Z,98314.00
2023-04-18T07:34:24.336Z,98316.00
2023-04-18T07:36:53.776Z,98307.00
2023-04-18T07:39:23.234Z,98299.00
2023-04-18T07:41:52.610Z,98304.00
2023-04-18T07:44:22.943Z,98303.00
2023-04-18T07:46:52.905Z,98294.00
2023-04-18T07:49:22.182Z,98294.00
2023-04-18T07:51:51.620Z,98286.00
2023-04-18T07:54:21.136Z,98286.00
2023-04-18T07:56:52.780Z,98284.00
2023-04-18T07:59:22.095Z,98269.00
2023-04-18T08:01:51.462Z,98275.00
2023-04-18T08:04:20.984Z,98275.00
2023-04-18T08:06:50.389Z,98260.00
2023-04-18T08:09:21.521Z,98259.00
2023-04-18T08:11:50.884Z,98264.00
2023-04-18T08:14:20.200Z,98264.00
2023-04-18T08:16:49.648Z,98262.00
2023-04-18T08:19:19.170Z,98254.00
2023-04-18T08:21:51.806Z,98252.00
2023-04-18T08:24:21.161Z,98256.00
2023-04-18T08:26:50.628Z,98255.00
2023-04-18T08:29:19.948Z,98256.00
2023-04-18T08:31:49.321Z,98250.00
2023-04-18T08:34:18.753Z,98247.00
2023-04-18T08:36:48.170Z,98251.00
2023-04-18T08:39:17.713Z,98251.00
2023-04-18T08:42:00.665Z,98245.00
2023-04-18T08:44:31.092Z,98248.00
2023-04-18T08:47:04.030Z,98238.00
2023-04-18T08:49:33.798Z,98235.00
2023-04-18T08:52:06.556Z,98225.00
2023-04-18T08:54:38.240Z,98224.00
2023-04-18T08:57:09.835Z,98232.00
2023-04-18T08:59:39.473Z,98222.00
2023-04-18T09:02:11.270Z,98217.00
2023-04-18T09:04:50.028Z,98216.00
2023-04-18T09:07:32.506Z,98221.00
2023-04-18T09:10:02.079Z,98215.00
2023-04-18T09:12:33.639Z,98217.00
2023-04-18T09:15:17.166Z,98220.00
2023-04-18T09:17:57.220Z,98216.00
2023-04-18T09:20:42.109Z,98218.00
2023-04-18T09:23:17.381Z,98211.00
2023-04-18T09:25:49.156Z,98211.00
2023-04-18T09:28:35.233Z,98207.00
2023-04-18T09:31:17.641Z,98203.00
2023-04-18T09:34:03.415Z,98200.00
2023-04-18T09:36:33.267Z,98195.00
2023-04-18T09:39:03.012Z,98197.00
2023-04-18T09:41:33.635Z,98192.00
2023-04-18T09:44:15.298Z,98193.00
2023-04-18T09:46:47.594Z,98188.00
2023-04-18T09:49:19.587Z,98195.00
2023-04-18T09:51:51.891Z,98198.00
2023-04-18T09:54:22.096Z,98190.00
2023-04-18T09:56:54.995Z,98187.00
2023-04-18T09:59:52.563Z,98180.00
2023-04-18T10:02:29.542Z,98184.00
2023-04-18T10:05:01.789Z,98186.00
2023-04-18T10:07:33.701Z,98184.00
2023-04-18T10:10:02.876Z,98183.00
2023-04-18T10:12:32.531Z,98176.00
2023-04-18T10:15:03.170Z,98174.00
2023-04-18T10:18:05.827Z,98180.00
2023-04-18T10:20:36.783Z,98174.00
2023-04-18T10:23:44.079Z,98171.00
2023-04-18T10:26:13.574Z,98172.00
2023-04-18T10:29:00.384Z,98172.00
2023-04-18T10:31:30.950Z,98173.00
2023-04-18T10:34:05.647Z,98181.00
2023-04-18T10:36:35.829Z,98178.00
2023-04-18T10:39:26.495Z,98187.00
2023-04-18T10:41:55.690Z,98184.00
2023-04-18T10:44:25.277Z,98190.00
2023-04-18T10:46:54.543Z,98191.00
2023-04-18T10:49:35.352Z,98193.00
2023-04-18T10:52:10.866Z,98193.00
2023-04-18T10:54:59.130Z,98197.00
2023-04-18T10:57:40.994Z,98201.00
2023-04-18T11:00:13.703Z,98208.00
2023-04-18T11:02:53.778Z,98204.00
2023-04-18T11:05:29.921Z,98214.00
2023-04-18T11:07:59.166Z,98207.00
2023-04-18T11:10:30.359Z,98211.00
2023-04-18T11:13:05.412Z,98210.00
2023-04-18T11:15:38.244Z,98210.00
2023-04-18T11:18:07.862Z,98221.00
2023-04-18T11:20:51.377Z,98224.00
2023-04-18T11:23:25.950Z,98225.00
2023-04-18T11:25:57.622Z,98225.00
2023-04-18T11:28:27.849Z,98219.00
2023-04-18T11:31:03.853Z,98218.00
2023-04-18T11:33:33.468Z,98220.00
2023-04-18T11:36:02.739Z,98216.00
2023-04-18T11:38:32.423Z,98213.00
2023-04-18T11:41:04.686Z,98216.00
2023-04-18T11:43:33.890Z,98224.00
2023-04-18T11:46:03.160Z,98223.00
2023-04-18T11:48:44.271Z,98224.00
2023-04-18T11:51:36.861Z,98235.00
2023-04-18T11:54:06.382Z,98238.00
2023-04-18T11:56:36.811Z,98239.00
2023-04-18T11:59:12.354Z,98243.00
2023-04-18T12:01:41.782Z,98244.00
2023-04-18T12:04:11.180Z,98249.00
2023-04-18T12:06:55.093Z,98243.00
2023-04-18T12:09:26.221Z,98252.00
2023-04-18T12:12:06.216Z,98251.00
2023-04-18T12:14:37.787Z,98256.00
2023-04-18T12:17:07.388Z,98256.00
2023-04-18T12:19:37.049Z,98258.00
2023-04-18T12:22:07.508Z,98260.00
2023-04-18T12:24:37.092Z,98265.00
2023-04-18T12:27:06.437Z,98264.00
2023-04-18T12:29:35.738Z,98268.00
2023-04-18T12:32:05.188Z,98272.00
2023-04-18T12:34:34.507Z,98270.00
2023-04-18T12:37:05.908Z,98272.00
2023-04-18T12:39:35.241Z,98280.00
2023-04-18T12:42:04.609Z,98283.00
2023-04-18T12:44:34.170Z,98285.00
2023-04-18T12:47:03.578Z,98290.00
2023-04-18T12:49:32.909Z,98293.00
2023-04-18T12:52:02.216Z,98289.00
2023-04-18T12:54:32.057Z,98295.00
2023-04-18T12:57:02.779Z,98299.00
2023-04-18T12:59:32.070Z,98301.00
2023-04-18T13:02:03.777Z,98296.00
2023-04-18T13:04:33.379Z,98295.00
2023-04-18T13:07:02.999Z,98302.00
2023-04-18T13:09:37.015Z,98306.00
2023-04-18T13:12:06.618Z,98306.00
2023-04-18T13:14:38.138Z,98306.00
2023-04-18T13:17:11.736Z,98316.00
2023-04-18T13:19:43.427Z,98314.00
2023-04-18T13:22:13.709Z,98319.00
2023-04-18T13:24:47.202Z,98321.00
2023-04-18T13:27:19.941Z,98318.00
2023-04-18T13:29:52.612Z,98321.00
2023-04-18T13:32:23.465Z,98319.00
2023-04-18T13:34:53.058Z,98319.00
2023-04-18T13:37:22.412Z,98324.00
2023-04-18T13:39:51.934Z,98335.00
2023-04-18T13:42:21.430Z,98331.00
2023-04-18T13:44:51.358Z,98336.00
2023-04-18T13:47:21.424Z,98345.00
2023-04-18T13:49:51.001Z,98340.00
2023-04-18T13:52:20.275Z,98343.00
2023-04-18T13:54:50.114Z,98345.00
2023-04-18T13:57:19.477Z,98349.00
2023-04-18T13:59:48.757Z,98347.00
2023-04-18T14:02:18.406Z,98354.00
2023-04-18T14:04:47.886Z,98355.00
2023-04-18T14:07:17.530Z,98350.00
2023-04-18T14:09:49.180Z,98359.00
2023-04-18T14:12:18.468Z,98365.00
2023-04-18T14:14:47.775Z,98360.00
2023-04-18T14:17:17.117Z,98363.00
2023-04-18T14:19:46.740Z,98366.00
2023-04-18T14:22:16.108Z,98363.00
2023-04-18T14:24:45.490Z,98375.00
2023-04-18T14:27:14.763Z,98379.00
2023-04-18T14:29:44.020Z,98384.00
2023-04-18T14:32:13.465Z,98384.00
2023-04-18T14:34:43.767Z,98380.00
2023-04-18T14:37:13.852Z,98384.00
2023-04-18T14:39:44.273Z,98384.00
2023-04-18T14:42:13.623Z,98386.00
2023-04-18T14:44:43.083Z,98385.00
2023-04-18T14:47:12.483Z,98394.00
2023-04-18T14:49:41.785Z,98390.00
2023-04-18T14:52:11.071Z,98397.00
2023-04-18T14:54:40.337Z,98397.00
2023-04-18T14:57:11.360Z,98398.00
2023-04-18T14:59:40.599Z,98402.00
2023-04-18T15:02:10.064Z,98399.00
2023-04-18T15:04:40.051Z,98399.00
2023-04-18T15:07:09.711Z,98401.00
2023-04-18T15:09:42.527Z,98404.00
2023-04-18T15:12:12.383Z,98410.00
2023-04-18T15:14:41.963Z,98406.00
2023-04-18T15:17:11.375Z,98399.00
2023-04-18T15:19:40.640Z,98407.00
2023-04-18T15:22:10.036Z,98405.00
2023-04-18T15:24:39.268Z,98415.00
2023-04-18T15:27:09.023Z,98409.00
2023-04-18T15:29:39.273Z,98409.00
2023-04-18T15:32:08.926Z,98407.00
2023-04-18T15:34:38.374Z,98404.00
2023-04-18T15:37:08.173Z,98401.00
2023-04-18T15:39:37.797Z,98407.00
2023-04-18T15:42:07.973Z,98410.00
2023-04-18T15:44:37.277Z,98410.00
2023-04-18T15:47:06.885Z,98411.00
2023-04-18T15:49:36.133Z,98406.00
2023-04-18T15:52:07.800Z,98409.00
2023-04-18T15:54:37.141Z,98410.00
2023-04-18T15:57:06.670Z,98402.00
2023-04-18T15:59:35.861Z,98408.00
2023-04-18T16:02:07.860Z,98401.00
2023-04-18T16:04:37.300Z,98401.00
2023-04-18T16:07:07.392Z,98402.00
2023-04-18T16:09:36.771Z,98400.00
2023-04-18T16:12:08.102Z,98405.00
2023-04-18T16:14:37.396Z,98396.00
2023-04-18T16:17:06.766Z,98398.00
2023-04-18T16:19:39.247Z,98397.00
2023-04-18T16:22:08.838Z,98402.00
2023-04-18T16:24:38.828Z,98394.00
2023-04-18T16:27:08.789Z,98393.00
2023-04-18T16:29:37.994Z,98394.00
2023-04-18T16:32:07.755Z,98385.00
2023-04-18T16:34:37.007Z,98392.00
2023-04-18T16:37:06.496Z,98383.00
2023-04-18T16:39:35.711Z,98383.00
2023-04-18T16:42:05.014Z,98384.00
2023-04-18T16:44:34.290Z,98391.00
2023-04-18T16:47:05.880Z,98378.00
2023-04-18T16:49:35.624Z,98376.00
2023-04-18T16:52:04.875Z,98380.00
2023-04-18T16:54:34.101Z,98379.00
2023-04-18T16:57:03.761Z,98365.00
2023-04-18T16:59:33.180Z,98369.00
2023-04-18T17:02:02.451Z,98365.00
2023-04-18T17:04:32.444Z,98363.00
2023-04-18T17:07:01.757Z,98353.00
2023-04-18T17:09:31.946Z,98359.00
2023-04-18T17:12:02.853Z,98357.00
2023-04-18T17:14:32.078Z,98353.00
2023-04-18T17:17:01.634Z,98354.00
2023-04-18T17:19:31.031Z,98350.00
2023-04-18T17:22:00.334Z,98343.00
2023-04-18T17:24:29.543Z,98343.00
2023-04-18T17:26:58.926Z,98335.00
2023-04-18T17:29:28.326Z,98339.00
2023-04-18T17:31:57.598Z,98331.00
2023-04-18T17:34:26.922Z,98333.00
2023-04-18T17:36:56.149Z,98330.00
2023-04-18T17:39:25.766Z,98333.00
2023-04-18T17:41:55.246Z,98322.00
2023-04-18T17:44:24.451Z,98326.00
2023-04-18T17:46:53.641Z,98319.00
2023-04-18T17:49:23.707Z,98321.00
2023-04-18T17:51:53.016Z,98325.00
2023-04-18T17:54:22.243Z,98328.00
2023-04-18T17:56:51.385Z,98317.00
2023-04-18T17:59:20.596Z,98313.00
2023-04-18T18:01:49.980Z,98307.00
2023-04-18T18:04:20.881Z,98308.00
2023-04-18T18:06:58.466Z,98295.00
2023-04-18T18:09:27.812Z,98298.00
2023-04-18T18:11:57.059Z,98289.00
2023-04-18T18:14:26.456Z,98293.00
2023-04-18T18:16:55.745Z,98278.00
2023-04-18T18:19:25.348Z,98274.00
2023-04-18T18:21:54.574Z,98274.00
2023-04-18T18:24:26.077Z,98266.00
2023-04-18T18:26:55.446Z,98263.00
2023-04-18T18:29:24.978Z,98265.00
2023-04-18T18:31:54.265Z,98248.00
2023-04-18T18:34:23.801Z,98249.00
2023-04-18T18:36:53.132Z,98250.00
2023-04-18T18:39:22.319Z,98248.00
2023-04-18T18:41:51.757Z,98245.00
2023-04-18T18:44:20.944Z,98244.00
2023-04-18T18:46:50.192Z,98245.00
2023-04-18T18:49:19.532Z,98244.00
2023-04-18T18:51:48.721Z,98235.00
2023-04-18T18:54:17.977Z,98239.00
2023-04-18T18:56:47.649Z,98235.00
2023-04-18T18:59:17.003Z,98244.00
2023-04-18T19:01:46.428Z,98242.00
2023-04-18T19:04:16.224Z,98228.00
2023-04-18T19:06:45.489Z,98231.00
2023-04-18T19:09:15.125Z,98231.00
2023-04-18T19:11:44.455Z,98225.00
2023-04-18T19:14:13.748Z,98220.00
2023-04-18T19:16:43.033Z,98230.00
2023-04-18T19:19:13.810Z,98232.00
2023-04-18T19:21:46.754Z,98229.00
2023-04-18T19:24:16.266Z,98225.00
2023-04-18T19:26:45.554Z,98223.00
2023-04-18T19:29:15.236Z,98219.00
2023-04-18T19:31:44.766Z,98220.00
2023-04-18T19:34:14.434Z,98223.00
2023-04-18T19:36:43.669Z,98221.00
2023-04-18T19:39:13.120Z,98212.00
2023-04-18T19:41:47.031Z,98213.00
2023-04-18T19:44:16.243Z,98215.00
2023-04-18T19:46:45.472Z,98213.00
2023-04-18T19:49:15.124Z,98207.00
2023-04-18T19:51:44.423Z,98207.00
2023-04-18T19:54:14.318Z,98214.00
2023-04-18T19:56:43.471Z,98206.00
2023-04-18T19:59:12.920Z,98204.00
2023-04-18T20:01:42.341Z,98203.00
2023-04-18T20:04:11.784Z,98205.00
2023-04-18T20:06:41.572Z,98215.00
2023-04-18T20:09:16.398Z,98211.00
2023-04-18T20:11:47.443Z,98214.00
2023-04-18T20:14:16.756Z,98213.00
2023-04-18T20:16:47.173Z,98209.00
2023-04-18T20:19:17.192Z,98205.00
2023-04-18T20:21:46.607Z,98207.00
2023-04-18T20:24:16.604Z,98202.00
2023-04-18T20:26:45.897Z,98198.00
2023-04-18T20:29:15.517Z,98204.00
2023-04-18T20:31:44.898Z,98201.00
2023-04-18T20:34:14.093Z,98199.00
2023-04-18T20:36:43.371Z,98190.00
2023-04-18T20:39:16.031Z,98192.00
2023-04-18T20:41:49.428Z,98198.00
2023-04-18T20:44:21.934Z,98190.00
2023-04-18T20:46:51.367Z,98196.00
2023-04-18T20:49:20.789Z,98195.00
2023-04-18T20:51:50.118Z,98189.00
2023-04-18T20:54:19.281Z,98193.00
2023-04-18T20:56:48.537Z,98189.00
2023-04-18T20:59:17.727Z,98187.00
2023-04-18T21:01:47.882Z,98188.00
2023-04-18T21:04:17.393Z,98188.00
2023-04-18T21:06:46.869Z,98189.00
2023-04-18T21:09:16.685Z,98184.00
2023-04-18T21:11:46.090Z,98189.00
2023-04-18T21:14:15.573Z,98194.00
2023-04-18T21:16:45.969Z,98199.00
2023-04-18T21:19:15.139Z,98207.00
2023-04-18T21:21:44.383Z,98210.00
2023-04-18T21:24:13.806Z,98204.00
2023-04-18T21:26:43.308Z,98208.00
2023-04-18T21:29:15.475Z,98205.00
2023-04-18T21:31:44.757Z,98201.00
2023-04-18T21:34:14.270Z,98205.00
2023-04-18T21:36:43.706Z,98208.00
2023-04-18T21:39:12.940Z,98212.00
2023-04-18T21:41:43.107Z,98210.00
2023-04-18T21:44:13.059Z,98214.00
2023-04-18T21:46:42.490Z,98221.00
2023-04-18T21:49:11.785Z,98210.00
2023-04-18T21:51:41.027Z,98217.00
2023-04-18T21:54:10.210Z,98219.00
2023-04-18T21:56:39.786Z,98220.00
2023-04-18T21:59:11.160Z,98224.00
2023-04-18T22:01:40.575Z,98224.00
2023-04-18T22:04:09.997Z,98231.00
2023-04-18T22:06:39.294Z,98221.00
2023-04-18T22:09:09.757Z,98224.00
2023-04-18T22:11:39.308Z,98222.00
2023-04-18T22:14:08.482Z,98225.00
2023-04-18T22:16:39.180Z,98231.00
2023-04-18T22:19:10.103Z,98228.00
2023-04-18T22:21:39.471Z,98232.00
2023-04-18T22:24:10.163Z,98234.00
2023-04-18T22:26:39.509Z,98236.00
2023-04-18T22:29:08.859Z,98250.00
2023-04-18T22:31:38.154Z,98242.00
2023-04-18T22:34:07.524Z,98252.00
2023-04-18T22:36:36.945Z,98251.00
2023-04-18T22:39:07.208Z,98256.00
2023-04-18T22:41:36.782Z,98259.00
2023-04-18T22:44:06.356Z,98259.00
2023-04-18T22:46:35.937Z,98265.00
2023-04-18T22:49:05.462Z,98263.00
2023-04-18T22:51:35.161Z,98268.00
2023-04-18T22:54:04.440Z,98268.00
2023-04-18T22:56:33.811Z,98275.00
2023-04-18T22:59:03.139Z,98282.00
2023-04-18T23:01:32.397Z,98284.00
2023-04-18T23:04:01.949Z,98286.00
2023-04-18T23:06:32.461Z,98289.00
2023-04-18T23:09:02.007Z,98290.00
2023-04-18T23:11:31.485Z,98290.00
2023-04-18T23:14:00.747Z,98290.00
2023-04-18T23:16:30.067Z,98295.00
2023-04-18T23:18:59.437Z,98306.00
2023-04-18T23:21:29.096Z,98300.00
2023-04-18T23:23:58.472Z,98298.00
2023-04-18T23:26:28.042Z,98312.00
2023-04-18T23:28:57.389Z,98311.00
2023-04-18T23:31:26.812Z,98318.00
2023-04-18T23:33:57.489Z,98320.00
2023-04-18T23:36:28.320Z,98321.00
2023-04-18T23:38:57.629Z,98324.00
2023-04-18T23:41:26.994Z,98332.00
2023-04-18T23:43:56.288Z,98335.00
2023-04-18T23:46:25.584Z,98343.00
2023-04-18T23:48:54.867Z,98335.00
2023-04-18T23:51:24.170Z,98342.00
2023-04-18T23:53:53.679Z,98348.00
2023-04-18T23:56:24.242Z,98345.00
2023-04-18T23:58:54.879Z,98346.00
